Time;durP1;ratioP1;P1;durP2;ratioP2;P2;SDS_P1;SDS_P2;PMS_P1;PMS_P2;Temp;Humidity;BMP_temperature;BMP_pressure;BME280_temperature;BME280_humidity;BME280_pressure;Samples;Min_cycle;Max_cycle;Signal;HPM_P1;HPM_P2
2022/01/02 00:01:47;;;;;;;1.23;0.80;;;21.80;46.30;;;;;;5044480;28;20025;-54
2022/01/02 00:04:19;;;;;;;1.02;0.70;;;21.80;46.40;;;;;;5051485;28;20454;-56
2022/01/02 00:06:48;;;;;;;0.93;0.77;;;21.80;46.40;;;;;;5050019;28;20017;-59
2022/01/02 00:09:19;;;;;;;1.30;0.82;;;21.80;46.30;;;;;;5043300;28;20096;-56
2022/01/02 00:11:48;;;;;;;0.90;0.80;;;21.80;46.30;;;;;;5038263;28;20021;-59
2022/01/02 00:14:20;;;;;;;1.58;0.93;;;21.80;46.30;;;;;;5045448;28;20033;-54
2022/01/02 00:16:46;;;;;;;1.23;0.73;;;21.80;46.30;;;;;;5040611;28;20028;-56
2022/01/02 00:19:28;;;;;;;1.52;1.00;;;21.80;46.30;;;;;;5038302;28;20032;-57
2022/01/02 00:21:58;;;;;;;1.08;0.88;;;21.80;46.30;;;;;;5036018;28;20060;-55
2022/01/02 00:24:26;;;;;;;1.33;0.85;;;21.80;46.30;;;;;;5037225;28;20017;-55
2022/01/02 00:26:55;;;;;;;1.00;0.80;;;21.70;46.20;;;;;;5041038;28;20075;-55
2022/01/02 00:29:22;;;;;;;1.33;0.90;;;21.80;46.30;;;;;;5020303;28;20021;-56
2022/01/02 00:31:48;;;;;;;1.23;0.90;;;21.70;46.20;;;;;;5019353;28;20124;-55
2022/01/02 00:34:15;;;;;;;1.38;0.80;;;21.80;46.20;;;;;;5041762;28;20021;-57
2022/01/02 00:36:41;;;;;;;1.25;0.80;;;21.80;46.20;;;;;;5039429;28;20039;-59
2022/01/02 00:39:07;;;;;;;0.90;0.70;;;21.80;46.20;;;;;;5025677;28;20044;-59
2022/01/02 00:41:48;;;;;;;0.93;0.60;;;21.70;46.10;;;;;;5041146;28;20436;-57
2022/01/02 00:44:38;;;;;;;1.08;0.68;;;21.70;46.70;;;;;;5044151;28;20020;-56
2022/01/02 00:47:14;;;;;;;0.80;0.80;;;21.70;46.10;;;;;;5041059;28;20036;-56
2022/01/02 00:49:45;;;;;;;1.83;0.93;;;21.70;46.10;;;;;;5039658;28;20483;-59
2022/01/02 00:52:17;;;;;;;1.33;0.90;;;21.70;46.10;;;;;;5038053;28;20021;-55
2022/01/02 00:54:44;;;;;;;1.10;0.82;;;21.70;46.10;;;;;;5027876;28;20041;-56
2022/01/02 00:57:15;;;;;;;1.30;0.90;;;21.70;46.10;;;;;;5028189;28;20068;-55
2022/01/02 00:59:57;;;;;;;1.38;0.93;;;21.70;46.00;;;;;;5028891;28;20056;-58
2022/01/02 01:02:32;;;;;;;1.50;0.80;;;21.70;46.00;;;;;;5039080;28;20025;-56
2022/01/02 01:05:00;;;;;;;1.02;0.90;;;21.70;46.00;;;;;;5048174;28;20025;-58
2022/01/02 01:07:28;;;;;;;1.60;1.00;;;21.70;46.00;;;;;;5042736;28;20030;-56
2022/01/02 01:09:56;;;;;;;1.50;0.80;;;21.70;46.10;;;;;;5018633;28;20108;-52
2022/01/02 01:12:23;;;;;;;1.50;1.00;;;21.70;46.00;;;;;;5041469;28;20020;-57
2022/01/02 01:14:50;;;;;;;1.10;0.80;;;21.70;46.00;;;;;;5031429;28;20039;-57
2022/01/02 01:17:16;;;;;;;1.13;0.70;;;21.70;46.10;;;;;;5021591;28;20037;-52
2022/01/02 01:19:43;;;;;;;1.75;1.20;;;21.70;46.00;;;;;;5021022;28;20457;-58
2022/01/02 01:22:11;;;;;;;1.92;1.00;;;21.70;46.00;;;;;;5034109;28;20460;-53
2022/01/02 01:24:37;;;;;;;1.73;1.20;;;21.70;46.00;;;;;;5027780;28;20421;-55
2022/01/02 01:27:05;;;;;;;1.67;0.82;;;21.70;46.10;;;;;;5038715;28;20108;-55
2022/01/02 01:29:34;;;;;;;1.80;1.00;;;21.70;46.10;;;;;;5039197;28;20021;-53
2022/01/02 01:32:04;;;;;;;1.25;0.80;;;21.60;46.00;;;;;;5023057;28;20025;-54
2022/01/02 01:34:30;;;;;;;1.40;0.80;;;21.60;46.00;;;;;;5026479;28;20045;-55
2022/01/02 01:36:56;;;;;;;1.10;0.82;;;21.60;46.10;;;;;;5020091;28;20171;-50
2022/01/02 01:39:25;;;;;;;2.00;1.10;;;21.70;46.10;;;;;;5020855;28;20032;-55
2022/01/02 01:41:54;;;;;;;2.75;1.02;;;21.70;46.20;;;;;;5029599;28;20025;-50
2022/01/02 01:44:28;;;;;;;1.90;1.02;;;21.70;46.20;;;;;;5035430;28;20059;-58
2022/01/02 01:46:55;;;;;;;1.42;0.93;;;21.60;46.20;;;;;;5029547;28;20024;-55
2022/01/02 01:49:27;;;;;;;1.38;0.90;;;21.60;46.20;;;;;;5031094;28;20026;-55
2022/01/02 01:51:54;;;;;;;0.95;0.75;;;21.60;46.20;;;;;;5026956;28;20031;-58
2022/01/02 01:54:22;;;;;;;0.90;0.70;;;21.60;46.30;;;;;;5010321;28;20034;-51
2022/01/02 01:56:51;;;;;;;1.40;0.85;;;21.60;46.30;;;;;;5008822;28;20030;-49
2022/01/02 01:59:20;;;;;;;1.98;0.80;;;21.60;46.30;;;;;;4999929;28;20023;-47
2022/01/02 02:01:47;;;;;;;2.90;1.08;;;21.60;46.40;;;;;;5010300;28;20022;-46
2022/01/02 02:04:13;;;;;;;1.45;0.80;;;21.60;46.40;;;;;;5009218;28;20023;-46
2022/01/02 02:06:40;;;;;;;1.02;0.82;;;21.60;46.40;;;;;;5011959;28;20034;-48
2022/01/02 02:09:06;;;;;;;1.55;0.80;;;21.60;46.50;;;;;;5005419;28;20312;-48
2022/01/02 02:11:37;;;;;;;1.10;0.73;;;21.60;46.50;;;;;;5014564;28;20026;-48
2022/01/02 02:14:04;;;;;;;1.50;0.73;;;21.60;46.50;;;;;;5009617;28;20034;-50
2022/01/02 02:16:31;;;;;;;1.67;1.05;;;21.60;46.60;;;;;;5000290;28;20030;-49
2022/01/02 02:18:58;;;;;;;1.60;0.90;;;21.60;46.60;;;;;;5006324;28;20109;-50
2022/01/02 02:21:35;;;;;;;1.50;0.70;;;21.60;46.60;;;;;;4989744;28;20493;-50
2022/01/02 02:24:04;;;;;;;1.20;0.80;;;21.60;46.60;;;;;;5003228;28;20033;-48
2022/01/02 02:26:32;;;;;;;1.13;0.85;;;21.60;46.60;;;;;;4999316;28;20018;-46
2022/01/02 02:28:58;;;;;;;1.05;0.77;;;21.60;46.60;;;;;;5016536;28;20109;-52
2022/01/02 02:31:24;;;;;;;2.20;1.00;;;21.60;46.60;;;;;;5009085;28;20045;-47
2022/01/02 02:33:50;;;;;;;1.85;1.17;;;21.60;46.60;;;;;;4996667;28;20397;-46
2022/01/02 02:36:16;;;;;;;1.38;0.90;;;21.50;46.50;;;;;;5008028;28;20034;-50
2022/01/02 02:38:42;;;;;;;1.20;0.90;;;21.60;46.60;;;;;;4998749;28;20026;-45
2022/01/02 02:41:08;;;;;;;1.75;0.85;;;21.50;46.50;;;;;;5009384;28;20452;-48
2022/01/02 02:43:47;;;;;;;1.33;0.70;;;21.60;46.60;;;;;;5014195;28;20072;-49
2022/01/02 02:49:06;;;;;;;1.85;0.90;;;21.50;46.70;;;;;;5003368;28;20036;-49
2022/01/02 02:51:54;;;;;;;1.52;1.02;;;21.50;46.80;;;;;;5011807;28;20939;-47
2022/01/02 02:54:40;;;;;;;1.23;0.85;;;21.50;46.80;;;;;;5000870;28;20038;-48
2022/01/02 02:57:12;;;;;;;3.83;1.05;;;21.50;46.80;;;;;;5005940;28;20052;-50
2022/01/02 02:59:38;;;;;;;1.85;0.80;;;21.50;46.80;;;;;;5004895;28;20014;-50
2022/01/02 03:02:06;;;;;;;1.30;0.98;;;21.50;46.80;;;;;;5002063;28;20076;-51
2022/01/02 03:04:39;;;;;;;1.35;0.93;;;21.50;46.90;;;;;;4998801;28;20026;-51
2022/01/02 03:07:06;;;;;;;2.38;1.02;;;21.50;46.90;;;;;;5007784;28;20030;-51
2022/01/02 03:09:39;;;;;;;1.48;0.73;;;21.50;46.90;;;;;;5004304;28;20037;-46
2022/01/02 03:12:07;;;;;;;2.20;0.90;;;21.50;47.00;;;;;;4997166;28;20022;-46
2022/01/02 03:14:35;;;;;;;1.95;0.93;;;21.50;47.00;;;;;;5000760;28;20434;-49
2022/01/02 03:17:03;;;;;;;2.38;0.95;;;21.50;47.00;;;;;;4999594;28;20034;-47
2022/01/02 03:19:31;;;;;;;2.65;1.05;;;21.50;47.00;;;;;;4997303;28;20022;-50
2022/01/02 03:21:58;;;;;;;1.83;0.90;;;21.50;47.00;;;;;;5004805;28;20039;-48
2022/01/02 03:24:24;;;;;;;1.58;0.85;;;21.50;47.00;;;;;;5011130;28;20022;-47
2022/01/02 03:26:50;;;;;;;1.40;0.85;;;21.50;47.00;;;;;;4989070;28;20331;-46
2022/01/02 03:29:16;;;;;;;1.67;0.93;;;21.50;47.00;;;;;;4996246;28;20026;-48
2022/01/02 03:31:41;;;;;;;1.65;0.90;;;21.50;47.10;;;;;;5003352;28;20033;-45
2022/01/02 03:34:07;;;;;;;1.60;0.85;;;21.50;47.00;;;;;;4995478;28;20108;-46
2022/01/02 03:36:33;;;;;;;1.33;0.70;;;21.50;47.10;;;;;;5020729;28;20057;-49
2022/01/02 03:38:59;;;;;;;2.15;0.98;;;21.50;47.10;;;;;;4998133;28;20445;-48
2022/01/02 03:41:25;;;;;;;2.28;1.00;;;21.50;47.10;;;;;;5005587;28;20022;-47
2022/01/02 03:43:52;;;;;;;1.45;0.98;;;21.50;47.10;;;;;;5012513;28;20026;-46
2022/01/02 03:46:18;;;;;;;1.13;0.82;;;21.50;47.10;;;;;;5017148;28;20022;-46
2022/01/02 03:48:44;;;;;;;2.05;0.93;;;21.50;47.10;;;;;;4996410;28;20018;-46
2022/01/02 03:51:12;;;;;;;2.05;1.05;;;21.50;47.10;;;;;;5002721;28;20095;-48
2022/01/02 03:53:38;;;;;;;1.30;0.90;;;21.50;47.10;;;;;;5011692;28;20022;-44
2022/01/02 03:56:04;;;;;;;2.25;1.00;;;21.50;47.70;;;;;;5040121;28;20041;-45
2022/01/02 03:58:31;;;;;;;0.90;0.70;;;21.50;47.10;;;;;;5030692;28;20041;-48
2022/01/02 04:00:57;;;;;;;1.15;0.80;;;21.50;47.10;;;;;;5025074;28;20033;-46
2022/01/02 04:03:23;;;;;;;2.58;1.15;;;21.50;47.10;;;;;;5036942;28;20086;-44
2022/01/02 04:05:49;;;;;;;2.50;1.00;;;21.50;47.10;;;;;;5039597;28;20345;-45
2022/01/02 04:08:15;;;;;;;1.83;1.00;;;21.50;47.10;;;;;;5048043;28;20341;-49
2022/01/02 04:10:41;;;;;;;1.67;0.90;;;21.50;47.20;;;;;;5021093;28;20052;-47
2022/01/02 04:13:07;;;;;;;1.25;0.73;;;21.50;47.20;;;;;;5048896;28;20055;-48
2022/01/02 04:15:33;;;;;;;1.92;0.70;;;21.50;47.20;;;;;;5017943;28;20420;-45
2022/01/02 04:18:00;;;;;;;1.40;0.70;;;21.50;47.20;;;;;;5029454;28;20123;-49
2022/01/02 04:20:25;;;;;;;1.35;0.63;;;21.50;47.20;;;;;;5027783;28;20112;-46
2022/01/02 04:22:51;;;;;;;2.25;1.00;;;21.50;47.20;;;;;;5044288;28;20304;-47
2022/01/02 04:25:18;;;;;;;3.03;1.10;;;21.50;47.20;;;;;;5020705;28;20021;-48
2022/01/02 04:27:43;;;;;;;2.17;0.88;;;21.40;47.10;;;;;;5027237;28;20037;-48
2022/01/02 04:30:12;;;;;;;2.03;1.05;;;21.40;47.20;;;;;;5017480;28;20017;-49
2022/01/02 04:32:41;;;;;;;2.67;1.10;;;21.40;47.20;;;;;;5018626;28;20448;-46
2022/01/02 04:35:08;;;;;;;1.88;1.10;;;21.40;47.20;;;;;;5017642;28;20424;-47
2022/01/02 04:37:35;;;;;;;2.55;0.90;;;21.40;47.20;;;;;;5024423;28;20347;-45
2022/01/02 04:40:02;;;;;;;1.23;0.80;;;21.40;47.20;;;;;;5021800;28;20029;-45
2022/01/02 04:42:29;;;;;;;2.28;1.00;;;21.40;47.20;;;;;;5024070;28;20063;-49
2022/01/02 04:44:55;;;;;;;1.75;1.17;;;21.40;47.20;;;;;;5018410;28;20056;-48
2022/01/02 04:47:21;;;;;;;1.98;0.80;;;21.40;47.20;;;;;;5031574;28;20020;-51
2022/01/02 04:49:47;;;;;;;1.40;0.88;;;21.40;47.20;;;;;;5026819;28;20025;-43
2022/01/02 04:52:13;;;;;;;1.55;0.82;;;21.40;47.20;;;;;;5025714;28;20032;-47
2022/01/02 04:54:39;;;;;;;1.63;0.90;;;21.40;47.20;;;;;;5018083;28;20041;-46
2022/01/02 04:57:05;;;;;;;1.38;0.77;;;21.40;47.20;;;;;;5024901;28;20076;-45
2022/01/02 04:59:31;;;;;;;1.65;0.82;;;21.40;47.20;;;;;;5029327;28;20383;-47
2022/01/02 05:01:57;;;;;;;2.22;0.88;;;21.40;47.20;;;;;;5022367;28;20029;-47
2022/01/02 05:04:23;;;;;;;2.20;0.88;;;21.40;47.20;;;;;;5027719;28;20037;-46
2022/01/02 05:06:49;;;;;;;1.63;0.88;;;21.40;47.30;;;;;;5017001;28;20344;-47
2022/01/02 05:09:15;;;;;;;2.05;0.95;;;21.40;47.20;;;;;;5022426;28;20025;-47
2022/01/02 05:11:42;;;;;;;1.63;0.80;;;21.40;47.20;;;;;;5017578;28;20353;-46
2022/01/02 05:14:08;;;;;;;1.52;0.80;;;21.40;47.20;;;;;;5025284;28;20029;-45
2022/01/02 05:16:33;;;;;;;2.13;1.10;;;21.40;47.20;;;;;;5034272;28;20044;-48
2022/01/02 05:18:59;;;;;;;2.88;1.10;;;21.40;47.20;;;;;;5037830;28;20674;-47
2022/01/02 05:21:25;;;;;;;2.35;0.98;;;21.40;47.20;;;;;;5032106;28;20071;-45
2022/01/02 05:23:51;;;;;;;1.23;0.77;;;21.40;47.30;;;;;;5024917;28;20036;-47
2022/01/02 05:26:17;;;;;;;1.83;0.85;;;21.40;47.30;;;;;;5034826;28;20112;-46
2022/01/02 05:28:44;;;;;;;1.65;0.90;;;21.40;47.30;;;;;;5030654;28;20018;-45
2022/01/02 05:31:10;;;;;;;1.52;0.82;;;21.40;47.30;;;;;;5021870;28;20071;-47
2022/01/02 05:33:36;;;;;;;2.72;1.15;;;21.40;47.30;;;;;;5024207;28;20021;-51
2022/01/02 05:36:03;;;;;;;2.28;0.93;;;21.40;47.30;;;;;;5020782;28;20041;-45
2022/01/02 05:38:29;;;;;;;2.22;1.10;;;21.40;47.40;;;;;;5025565;28;20017;-45
2022/01/02 05:40:56;;;;;;;1.98;0.88;;;21.40;47.40;;;;;;5028593;28;20084;-49
2022/01/02 05:43:21;;;;;;;1.38;0.90;;;21.40;47.40;;;;;;5042830;28;20017;-46
2022/01/02 05:45:47;;;;;;;2.45;0.90;;;21.40;47.40;;;;;;5055544;28;20359;-49
2022/01/02 05:48:13;;;;;;;1.30;0.80;;;21.40;47.40;;;;;;5048957;28;20025;-47
2022/01/02 05:50:39;;;;;;;2.45;1.15;;;21.40;47.40;;;;;;5020380;28;20447;-46
2022/01/02 05:53:05;;;;;;;2.42;0.93;;;21.30;47.40;;;;;;5025128;28;20021;-47
2022/01/02 05:55:31;;;;;;;2.50;1.10;;;21.40;48.10;;;;;;5021630;28;20050;-45
2022/01/02 05:57:57;;;;;;;4.60;1.02;;;21.40;47.50;;;;;;5024190;28;20025;-46
2022/01/02 06:00:23;;;;;;;2.05;0.90;;;21.40;47.50;;;;;;5033265;28;20488;-46
2022/01/02 06:02:55;;;;;;;2.13;1.08;;;21.40;47.50;;;;;;5039582;28;20108;-52
2022/01/02 06:05:21;;;;;;;1.58;0.90;;;21.40;47.50;;;;;;5044989;28;20128;-48
2022/01/02 06:07:47;;;;;;;1.73;0.80;;;21.30;47.40;;;;;;5024885;28;20033;-48
2022/01/02 06:10:12;;;;;;;1.25;0.90;;;21.40;47.50;;;;;;5037677;28;20473;-48
2022/01/02 06:12:38;;;;;;;1.92;0.88;;;21.30;47.40;;;;;;5030488;28;20018;-48
2022/01/02 06:15:06;;;;;;;1.80;0.88;;;21.30;48.10;;;;;;5031591;28;20052;-44
2022/01/02 06:17:33;;;;;;;1.63;0.77;;;21.30;47.50;;;;;;5029312;28;20452;-46
2022/01/02 06:20:00;;;;;;;1.75;0.82;;;21.30;47.50;;;;;;5033252;28;20028;-47
2022/01/02 06:22:25;;;;;;;2.08;0.90;;;21.30;47.50;;;;;;5032599;28;20035;-46
2022/01/02 06:24:52;;;;;;;1.88;0.90;;;21.30;47.50;;;;;;5028439;28;20079;-50
2022/01/02 06:27:19;;;;;;;2.13;0.80;;;21.30;47.50;;;;;;5030179;28;20444;-49
2022/01/02 06:29:46;;;;;;;2.20;0.90;;;21.30;47.50;;;;;;5028556;28;20045;-46
2022/01/02 06:32:11;;;;;;;2.40;0.75;;;21.30;47.50;;;;;;5019688;28;20053;-47
2022/01/02 06:34:37;;;;;;;1.45;0.90;;;21.30;47.50;;;;;;5039745;28;20035;-46
2022/01/02 06:37:03;;;;;;;1.65;0.82;;;21.30;47.50;;;;;;5029674;28;20043;-45
2022/01/02 06:39:29;;;;;;;1.58;0.90;;;21.30;47.40;;;;;;5046294;28;20045;-46
2022/01/02 06:41:55;;;;;;;1.00;0.70;;;21.30;47.40;;;;;;5022084;28;20408;-49
2022/01/02 06:44:21;;;;;;;1.05;0.63;;;21.30;47.40;;;;;;5029836;28;20067;-49
2022/01/02 06:46:48;;;;;;;1.00;0.80;;;21.30;47.40;;;;;;5021290;28;20063;-46
2022/01/02 06:49:14;;;;;;;3.67;1.00;;;21.30;47.40;;;;;;5020155;28;20028;-47
2022/01/02 06:51:40;;;;;;;1.95;0.80;;;21.30;47.40;;;;;;5036873;28;20053;-48
2022/01/02 06:54:06;;;;;;;2.80;1.33;;;21.30;47.40;;;;;;5034632;28;20067;-45
2022/01/02 06:56:32;;;;;;;1.75;1.00;;;21.30;47.40;;;;;;5031434;28;20041;-47
2022/01/02 06:58:58;;;;;;;1.38;0.80;;;21.30;47.40;;;;;;5026690;28;20032;-45
2022/01/02 07:01:24;;;;;;;1.48;0.82;;;21.20;47.30;;;;;;5021876;28;20021;-46
2022/01/02 07:03:50;;;;;;;1.80;0.95;;;21.30;47.40;;;;;;5023619;28;20399;-45
2022/01/02 07:06:16;;;;;;;1.33;0.80;;;21.20;47.30;;;;;;5023032;28;20425;-47
2022/01/02 07:08:41;;;;;;;1.77;0.80;;;21.20;47.30;;;;;;5022628;28;20029;-47
2022/01/02 07:11:08;;;;;;;1.45;0.80;;;21.30;47.30;;;;;;5037648;28;20028;-45
2022/01/02 07:13:34;;;;;;;1.75;0.93;;;21.30;47.30;;;;;;5048483;28;20025;-46
2022/01/02 07:16:00;;;;;;;1.65;0.73;;;21.20;47.20;;;;;;5043784;28;20059;-46
2022/01/02 07:18:26;;;;;;;2.95;1.00;;;21.20;47.20;;;;;;5050079;28;20021;-49
2022/01/02 07:20:51;;;;;;;2.33;1.00;;;21.20;47.20;;;;;;5041560;28;20020;-47
2022/01/02 07:23:17;;;;;;;1.45;0.70;;;21.20;47.20;;;;;;5043903;28;20044;-49
2022/01/02 07:25:43;;;;;;;1.67;0.65;;;21.20;47.20;;;;;;5037295;28;20040;-47
2022/01/02 07:28:09;;;;;;;1.98;1.27;;;21.20;47.20;;;;;;5054209;28;20025;-47
2022/01/02 07:30:34;;;;;;;2.63;0.90;;;21.20;47.20;;;;;;5037527;28;20151;-49
2022/01/02 07:33:02;;;;;;;1.38;0.80;;;21.20;47.20;;;;;;5047674;28;20036;-47
2022/01/02 07:35:31;;;;;;;2.25;0.98;;;21.20;47.20;;;;;;5052313;28;20032;-50
2022/01/02 07:37:57;;;;;;;1.10;0.88;;;21.20;47.20;;;;;;5040983;28;20025;-46
2022/01/02 07:40:24;;;;;;;1.38;0.68;;;21.20;47.20;;;;;;5048087;28;20037;-48
2022/01/02 07:42:50;;;;;;;1.77;0.90;;;21.20;47.20;;;;;;5046645;28;20035;-53
2022/01/02 07:45:22;;;;;;;5.18;1.42;;;21.20;47.20;;;;;;5036526;28;20028;-49
2022/01/02 07:47:48;;;;;;;1.67;0.80;;;21.20;47.20;;;;;;5051581;28;20336;-46
2022/01/02 07:50:13;;;;;;;1.77;0.90;;;21.20;47.20;;;;;;5051997;28;20017;-46
2022/01/02 07:52:39;;;;;;;1.40;0.77;;;21.20;47.20;;;;;;5049802;28;20027;-47
2022/01/02 07:55:05;;;;;;;1.65;0.95;;;21.20;47.20;;;;;;5046513;28;20033;-45
2022/01/02 07:57:31;;;;;;;1.40;0.70;;;21.20;47.20;;;;;;5047012;28;20036;-45
2022/01/02 07:59:57;;;;;;;1.55;0.75;;;21.30;47.30;;;;;;5041829;28;20033;-46
2022/01/02 08:02:22;;;;;;;1.58;1.00;;;21.30;47.30;;;;;;5028128;28;20025;-46
2022/01/02 08:04:48;;;;;;;1.08;0.70;;;21.30;47.30;;;;;;5036105;28;20021;-52
2022/01/02 08:07:14;;;;;;;1.42;0.70;;;21.40;47.30;;;;;;5042241;28;20032;-45
2022/01/02 08:09:40;;;;;;;1.05;0.88;;;21.40;47.30;;;;;;5039972;28;20030;-45
2022/01/02 08:12:06;;;;;;;1.70;0.90;;;21.50;47.20;;;;;;5030042;28;20052;-46
2022/01/02 08:14:31;;;;;;;1.52;0.90;;;21.50;47.10;;;;;;5039746;28;20112;-47
2022/01/02 08:16:57;;;;;;;2.13;0.90;;;21.60;47.00;;;;;;5051095;28;20032;-49
2022/01/02 08:19:23;;;;;;;3.20;1.40;;;21.70;46.90;;;;;;5054851;28;20104;-46
2022/01/02 08:21:49;;;;;;;1.35;0.90;;;21.70;46.70;;;;;;5042690;28;20533;-47
2022/01/02 08:24:14;;;;;;;2.22;1.05;;;21.80;46.70;;;;;;5054232;28;20039;-47
2022/01/02 08:26:40;;;;;;;1.13;0.80;;;21.80;46.70;;;;;;5054046;28;20031;-47
2022/01/02 08:29:06;;;;;;;1.60;0.88;;;21.90;46.50;;;;;;5053190;28;20047;-49
2022/01/02 08:31:32;;;;;;;1.30;0.70;;;22.00;46.50;;;;;;5053545;28;20029;-48
2022/01/02 08:33:58;;;;;;;3.17;1.00;;;22.00;46.40;;;;;;5054662;28;20032;-45
2022/01/02 08:36:24;;;;;;;1.80;0.90;;;22.10;46.30;;;;;;5054242;28;20116;-46
2022/01/02 08:38:51;;;;;;;1.80;0.82;;;22.10;46.20;;;;;;5054142;28;20044;-48
2022/01/02 08:41:17;;;;;;;2.10;1.17;;;22.20;46.10;;;;;;5053884;28;20429;-47
2022/01/02 08:43:43;;;;;;;2.88;1.30;;;22.20;45.90;;;;;;5054506;28;20408;-49
2022/01/02 08:46:10;;;;;;;1.70;1.10;;;22.30;45.90;;;;;;5054357;28;20020;-48
2022/01/02 08:48:36;;;;;;;1.88;0.82;;;22.30;45.80;;;;;;5054101;28;20040;-49
2022/01/02 08:51:02;;;;;;;1.48;0.70;;;22.40;45.70;;;;;;5040808;28;20344;-45
2022/01/02 08:53:28;;;;;;;1.52;0.70;;;22.40;45.60;;;;;;5053821;28;20040;-52
2022/01/02 08:55:54;;;;;;;2.13;1.00;;;22.50;45.50;;;;;;5015071;28;20376;-47
2022/01/02 08:58:20;;;;;;;1.00;0.80;;;22.50;45.40;;;;;;5012055;28;20080;-51
2022/01/02 09:00:46;;;;;;;1.20;0.70;;;22.50;45.40;;;;;;5013169;28;20025;-54
2022/01/02 09:03:12;;;;;;;1.42;0.90;;;22.60;45.40;;;;;;5020701;28;20091;-50
2022/01/02 09:05:38;;;;;;;1.30;0.90;;;22.60;45.30;;;;;;5020643;28;20437;-47
2022/01/02 09:08:04;;;;;;;2.75;1.00;;;22.60;45.20;;;;;;5013496;28;20072;-47
2022/01/02 09:10:30;;;;;;;1.35;0.80;;;22.70;45.10;;;;;;5018209;28;20026;-47
2022/01/02 09:12:55;;;;;;;1.92;1.00;;;22.80;45.00;;;;;;5029926;28;20030;-49
2022/01/02 09:15:21;;;;;;;1.25;0.95;;;22.80;44.90;;;;;;5032822;28;20021;-51
2022/01/02 09:17:47;;;;;;;1.30;0.75;;;22.90;44.80;;;;;;5031184;28;20336;-46
2022/01/02 09:20:14;;;;;;;1.65;0.80;;;23.00;44.70;;;;;;5015195;28;20341;-49
2022/01/02 09:22:40;;;;;;;2.80;1.20;;;23.00;44.60;;;;;;5016128;28;20034;-48
2022/01/02 09:25:09;;;;;;;1.20;1.00;;;23.10;44.50;;;;;;5014975;28;20025;-47
2022/01/02 09:27:35;;;;;;;1.75;0.70;;;23.10;44.30;;;;;;5025510;28;20322;-46
2022/01/02 09:30:05;;;;;;;1.15;0.75;;;23.10;44.20;;;;;;5026506;28;20449;-51
2022/01/02 09:32:34;;;;;;;0.88;0.70;;;23.20;44.20;;;;;;5015818;28;20045;-51
2022/01/02 09:35:01;;;;;;;1.60;1.00;;;23.20;44.10;;;;;;5013942;28;20425;-56
2022/01/02 09:37:27;;;;;;;2.20;0.98;;;23.20;44.00;;;;;;5010957;28;20030;-48
2022/01/02 09:39:53;;;;;;;1.00;0.80;;;23.20;44.00;;;;;;5013844;28;20026;-54
2022/01/02 09:42:19;;;;;;;1.80;0.60;;;23.20;43.80;;;;;;5014630;28;20104;-53
2022/01/02 09:44:48;;;;;;;1.70;0.80;;;23.20;43.80;;;;;;5014028;28;20026;-49
2022/01/02 09:47:18;;;;;;;1.05;0.82;;;23.30;43.80;;;;;;5014719;28;20171;-49
2022/01/02 09:49:46;;;;;;;1.23;0.80;;;23.20;43.70;;;;;;5009131;28;20046;-49
2022/01/02 09:52:12;;;;;;;1.40;0.95;;;23.20;43.60;;;;;;5014618;28;20026;-53
2022/01/02 09:54:37;;;;;;;2.38;0.90;;;23.20;43.60;;;;;;5028003;28;20037;-47
2022/01/02 09:57:04;;;;;;;0.93;0.77;;;23.20;43.60;;;;;;5053920;28;20037;-48
2022/01/02 09:59:29;;;;;;;2.13;0.98;;;23.20;43.50;;;;;;5053718;28;20017;-52
2022/01/02 10:01:56;;;;;;;1.38;0.80;;;23.20;43.40;;;;;;5054408;28;20524;-47
2022/01/02 10:04:34;;;;;;;1.48;0.90;;;23.20;43.40;;;;;;5053987;28;20037;-49
2022/01/02 10:06:59;;;;;;;1.55;1.05;;;23.20;43.30;;;;;;5047383;28;20036;-52
2022/01/02 10:09:32;;;;;;;1.83;0.82;;;23.20;43.30;;;;;;5055268;28;20382;-52
2022/01/02 10:12:20;;;;;;;2.20;1.00;;;23.20;43.20;;;;;;5054392;28;20028;-52
2022/01/02 10:15:10;;;;;;;1.95;1.35;;;23.20;43.00;;;;;;5038964;28;20408;-48
2022/01/02 10:17:57;;;;;;;1.75;1.23;;;23.20;42.90;;;;;;5057827;28;20112;-48
2022/01/02 10:20:28;;;;;;;1.63;0.82;;;23.20;42.90;;;;;;5059083;28;20032;-49
2022/01/02 10:23:06;;;;;;;1.30;1.10;;;23.20;42.90;;;;;;5066869;28;20078;-52
2022/01/02 10:25:50;;;;;;;2.03;0.82;;;23.20;42.80;;;;;;5056885;28;20035;-47
2022/01/02 10:28:28;;;;;;;1.52;0.95;;;23.20;42.80;;;;;;5057294;28;20437;-50
2022/01/02 10:30:57;;;;;;;1.35;0.85;;;23.20;42.90;;;;;;5057258;28;20113;-55
2022/01/02 10:33:24;;;;;;;1.30;1.00;;;23.10;43.00;;;;;;5036596;28;20025;-52
2022/01/02 10:36:00;;;;;;;2.00;0.88;;;23.10;43.10;;;;;;5027053;28;20028;-50
2022/01/02 10:38:25;;;;;;;1.42;0.90;;;23.10;43.20;;;;;;5037504;28;20035;-47
2022/01/02 10:40:51;;;;;;;1.00;0.82;;;23.10;43.30;;;;;;5042593;28;20028;-42
2022/01/02 10:43:30;;;;;;;1.10;0.70;;;23.10;43.30;;;;;;5050572;28;20021;-55
2022/01/02 10:45:58;;;;;;;3.17;2.00;;;23.10;43.30;;;;;;5051104;28;20031;-53
2022/01/02 10:48:38;;;;;;;9.15;4.22;;;23.10;43.60;;;;;;5046427;28;20032;-53
2022/01/02 10:51:10;;;;;;;16.65;9.50;;;23.10;44.90;;;;;;5041045;28;20022;-48
2022/01/02 10:53:50;;;;;;;24.70;12.10;;;23.10;46.50;;;;;;5039946;28;20017;-52
2022/01/02 10:56:16;;;;;;;25.67;13.75;;;23.10;47.80;;;;;;5049554;28;20447;-49
2022/01/02 10:58:46;;;;;;;27.08;14.38;;;23.10;49.00;;;;;;5063655;28;20527;-52
2022/01/02 11:01:12;;;;;;;28.35;14.82;;;23.10;49.90;;;;;;5053008;28;20041;-54
2022/01/02 11:03:45;;;;;;;28.17;14.23;;;23.10;50.50;;;;;;5060962;28;20025;-55
2022/01/02 11:06:14;;;;;;;22.45;12.10;;;23.20;50.80;;;;;;5066108;28;20017;-52
2022/01/02 11:08:47;;;;;;;20.33;10.88;;;23.20;50.80;;;;;;5058309;28;20036;-52
2022/01/02 11:11:13;;;;;;;15.82;9.15;;;23.20;50.40;;;;;;5056883;28;20032;-54
2022/01/02 11:13:39;;;;;;;19.02;8.40;;;23.20;50.10;;;;;;5039933;28;20045;-54
2022/01/02 11:16:05;;;;;;;24.75;8.88;;;23.20;49.80;;;;;;5057184;28;20032;-48
2022/01/02 11:18:33;;;;;;;18.63;8.68;;;23.20;49.90;;;;;;5063095;28;20020;-56
2022/01/02 11:20:59;;;;;;;15.57;7.40;;;23.20;50.10;;;;;;5056392;28;20056;-50
2022/01/02 11:23:57;;;;;;;12.85;6.38;;;23.20;50.30;;;;;;5069668;28;20292;-52
2022/01/02 11:26:43;;;;;;;11.52;5.47;;;23.20;49.90;;;;;;5066793;28;20068;-53
2022/01/02 11:29:09;;;;;;;8.70;4.70;;;23.20;49.50;;;;;;5076722;28;20024;-53
2022/01/02 11:31:50;;;;;;;10.95;5.30;;;23.10;49.50;;;;;;5061178;28;20079;-51
2022/01/02 11:34:28;;;;;;;9.90;5.32;;;23.10;49.80;;;;;;5036449;28;20021;-56
2022/01/02 11:37:24;;;;;;;9.68;5.63;;;23.20;49.90;;;;;;5055652;28;20095;-53
2022/01/02 11:39:52;;;;;;;12.63;6.57;;;23.20;49.90;;;;;;5056560;28;20087;-51
2022/01/02 11:42:40;;;;;;;12.50;6.63;;;23.10;50.30;;;;;;5056156;28;20033;-54
2022/01/02 11:45:09;;;;;;;12.48;6.18;;;23.10;50.80;;;;;;5057230;28;20028;-54
2022/01/02 11:47:40;;;;;;;10.73;5.03;;;23.20;51.20;;;;;;5056393;28;20049;-56
2022/01/02 11:50:36;;;;;;;12.45;5.20;;;23.10;51.20;;;;;;5056675;28;20029;-60
2022/01/02 11:53:16;;;;;;;4.68;2.90;;;23.20;50.80;;;;;;5073282;28;20036;-50
2022/01/02 11:55:49;;;;;;;5.93;2.13;;;23.20;49.70;;;;;;5053994;28;20060;-54
2022/01/02 11:58:37;;;;;;;3.70;1.83;;;23.20;49.20;;;;;;5053703;28;20039;-52
2022/01/02 12:01:03;;;;;;;3.75;2.60;;;23.10;48.60;;;;;;5051925;28;20368;-54
2022/01/02 12:03:41;;;;;;;4.40;2.33;;;23.10;48.80;;;;;;5052224;28;20143;-51
2022/01/02 12:06:33;;;;;;;5.88;2.88;;;23.10;48.90;;;;;;5051245;28;20345;-48
2022/01/02 12:09:01;;;;;;;4.90;2.90;;;23.10;48.80;;;;;;5053543;28;20028;-53
2022/01/02 12:11:40;;;;;;;4.50;2.30;;;23.00;48.60;;;;;;5051649;28;20028;-50
2022/01/02 12:14:08;;;;;;;6.38;2.47;;;23.00;48.40;;;;;;5053415;28;20040;-54
2022/01/02 12:16:39;;;;;;;5.20;2.30;;;23.00;48.20;;;;;;5053250;28;20170;-58
2022/01/02 12:19:08;;;;;;;3.70;2.10;;;23.10;48.00;;;;;;5052296;28;20110;-56
2022/01/02 12:21:34;;;;;;;2.38;1.55;;;23.00;47.70;;;;;;5052601;28;20052;-54
2022/01/02 12:24:02;;;;;;;5.15;1.90;;;23.00;47.40;;;;;;5050793;28;20021;-56
2022/01/02 12:26:31;;;;;;;3.85;1.83;;;23.00;47.30;;;;;;5053109;28;20035;-58
2022/01/02 12:29:06;;;;;;;3.22;1.90;;;23.10;47.10;;;;;;5053458;28;20017;-57
2022/01/02 12:31:43;;;;;;;2.75;1.67;;;23.10;47.00;;;;;;5053433;28;20025;-54
2022/01/02 12:34:18;;;;;;;2.72;1.60;;;23.10;46.80;;;;;;5052822;28;20033;-54
2022/01/02 12:36:46;;;;;;;3.92;1.65;;;23.10;46.60;;;;;;5035254;28;20093;-54
2022/01/02 12:39:30;;;;;;;2.60;1.58;;;23.00;46.50;;;;;;5052088;28;20025;-51
2022/01/02 12:42:03;;;;;;;2.50;1.20;;;23.00;46.30;;;;;;5052830;28;20057;-57
2022/01/02 12:44:32;;;;;;;2.92;1.50;;;23.00;46.20;;;;;;5051672;28;20036;-57
2022/01/02 12:47:00;;;;;;;2.30;1.30;;;22.90;46.10;;;;;;5052333;28;20102;-57
2022/01/02 12:49:32;;;;;;;2.30;1.50;;;23.00;46.10;;;;;;5051981;28;20024;-53
2022/01/02 12:52:03;;;;;;;3.95;1.40;;;23.00;45.90;;;;;;5052608;28;20024;-58
2022/01/02 12:54:33;;;;;;;2.92;1.58;;;23.00;45.80;;;;;;5052586;28;20053;-53
2022/01/02 12:57:05;;;;;;;3.28;1.23;;;23.00;45.80;;;;;;5049542;28;20095;-56